Hlavní strana
METAR-TAF:

METAR-TAF

Letiště :

Ottawa, Ontario, Kanada

zeměpisná šířka: 45-19N, zeměpisná délka: 075-40W, výška: 116 m

Aktuální stav počasí

Zpráva byla vytvořena před 34 minutami, v 13:00 UTC
Jihojihozápadní vítr 4 kt, proměnlivý mezi jihojihovýchodním a jihozápadním
Teplota 9°C
Vlhkost vzduchu 37%
Tlak 1031 hPa
Viditelnost: 24.1 km
Skoro jasno ve výšce 25000 ft

METAR: CYOW 231300Z 21004KT 160V230 15SM FEW250 09/M05 A3046 RMK CI1 SLP320

Čas: 09:34 (13:34 UTC)

Předpověď počasí

Zpráva byla vytvořena před 1 hodinou a 55 minutami, v 11:39 UTC
Předpověď platná od 23 v 12 UTC do 24 v 12 UTC
Jižní vítr 6 kt
Viditelnost: 10 km
Jasno
Změna
od 23 v 15 UTC do 23 v 17 UTC
Jihojihozápadní vítr 8 kt
Změna
od 24 v 02 UTC do 24 v 04 UTC
Jihojihozápadní vítr 5 kt

TAF: CYOW 231139Z 2312/2412 18006KT P6SM SKC BECMG 2315/2317 21008KT BECMG 2402/2404 20005KT RMK NXT FCST BY 231500Z

Stav a předpovědi počasí z více než 4 000 letišť (zprávy METAR a TAF).

Červené a žluté tečky na mapě představují dostupné meteorologické stanice.

Když kurzor umístíte na tečku, zobrazí se název stanice.

Pak kliknutím zobrazíte stav a předpověď počasí.

Chcete-li změnit mapu, kliknutím na zelené tlačítko se znaménkem +mapu přiblížíte, kliknutím na zelené tlačítko se znaménkem – mapu oddálíte a kliknutím na zelené šipky přejdete na sousední mapy.


METAR-TAF: